Strona główna
METAR-TAF:

METAR-TAF

Lotnisko :

Chartum, Sudan

Port lotniczy Chartum

Szerokość geograficzna: 15-36N, Długość geograficzna: 032-33E, wysokość: 382 m

Aktualna obserwacja pogody

Raport powstał 44 minut temu, godzina 03:00 UTC
Wiatr 10 kt od północno-północny zachód
Temperatura 18°C
Wilgotność 30%
Ciśnienie 1012 hPa
Widzialność 10 km lub więcej
Brak chmur poniżej 1500 m i brak chmur cumulonimbus

METAR: HSSS 180300Z 33010KT CAVOK 18/00 Q1012 NOSIG

czas: 06:44 (03:44 UTC)

Prognoza

Raport powstał 4 godziny i 44 minut temu, godzina 23:00 UTC
Prognoza ważna od 18 godzina 00 UTC do 19 godzina 06 UTC
Wiatr 10 kt od północ w porywach dochodzący do 20 kt
Widzialność 10 km lub więcej
Brak chmur poniżej 1500 m i brak chmur cumulonimbus
Przejściowo
od 18 godzina 03 UTC do 18 godzina 06 UTC
Widzialność: 6000 m

TAF: HSSS 172300Z 1800/1906 36010G20KT CAVOK TEMPO 1803/1806 6000

Obserwacja i prognoza pogody dla ponad 4000 lotnisk (raport METAR i TAF).

Dostępne stacje oznaczono żółtymi i czerwonymi punktami na mapie.

Najedź kursorem aby zobaczyć nazwę stacji.

Kliknij aby zobaczyć obserwacje i prognozy pogody.

Aby zmienić mapę: kliknij na zielony przycisk z czarnym krzyżykiem, aby powiększyć; na zielony przycisk z myślnikiem, aby pomniejszyć; na zielone strzałki, aby przejść do map sąsiednich.


METAR-TAF: